sensor_id;sensor_type;location;lat;lon;timestamp;P1;durP1;ratioP1;P2;durP2;ratioP2
15159;SDS011;7680;48.800;9.680;2023-11-18T00:04:52;13.27;;;12.07;;
15159;SDS011;7680;48.800;9.680;2023-11-18T00:09:57;13.00;;;11.90;;
15159;SDS011;7680;48.800;9.680;2023-11-18T00:15:00;12.73;;;11.53;;
15159;SDS011;7680;48.800;9.680;2023-11-18T00:20:05;12.53;;;11.43;;
15159;SDS011;7680;48.800;9.680;2023-11-18T00:25:15;12.57;;;11.40;;
15159;SDS011;7680;48.800;9.680;2023-11-18T00:30:18;12.50;;;11.50;;
15159;SDS011;7680;48.800;9.680;2023-11-18T00:35:21;12.90;;;11.70;;
15159;SDS011;7680;48.800;9.680;2023-11-18T00:40:26;13.53;;;12.23;;
15159;SDS011;7680;48.800;9.680;2023-11-18T00:45:31;13.23;;;11.90;;
15159;SDS011;7680;48.800;9.680;2023-11-18T00:50:34;13.63;;;12.33;;
15159;SDS011;7680;48.800;9.680;2023-11-18T00:55:39;13.03;;;11.87;;
15159;SDS011;7680;48.800;9.680;2023-11-18T01:00:42;13.87;;;12.67;;
15159;SDS011;7680;48.800;9.680;2023-11-18T01:05:46;13.60;;;12.33;;
15159;SDS011;7680;48.800;9.680;2023-11-18T01:10:50;12.27;;;11.27;;
15159;SDS011;7680;48.800;9.680;2023-11-18T01:15:53;13.30;;;12.20;;
15159;SDS011;7680;48.800;9.680;2023-11-18T01:20:56;13.40;;;12.23;;
15159;SDS011;7680;48.800;9.680;2023-11-18T01:26:01;13.40;;;12.20;;
15159;SDS011;7680;48.800;9.680;2023-11-18T01:31:06;14.40;;;13.13;;
15159;SDS011;7680;48.800;9.680;2023-11-18T01:36:11;14.10;;;12.70;;
15159;SDS011;7680;48.800;9.680;2023-11-18T01:41:15;14.83;;;13.27;;
15159;SDS011;7680;48.800;9.680;2023-11-18T01:46:20;15.07;;;13.67;;
15159;SDS011;7680;48.800;9.680;2023-11-18T01:51:24;14.17;;;12.77;;
15159;SDS011;7680;48.800;9.680;2023-11-18T01:56:29;15.17;;;13.83;;
15159;SDS011;7680;48.800;9.680;2023-11-18T02:01:33;14.80;;;13.33;;
15159;SDS011;7680;48.800;9.680;2023-11-18T02:06:37;15.07;;;13.67;;
15159;SDS011;7680;48.800;9.680;2023-11-18T02:11:43;14.67;;;13.27;;
15159;SDS011;7680;48.800;9.680;2023-11-18T02:16:55;14.60;;;13.20;;
15159;SDS011;7680;48.800;9.680;2023-11-18T02:22:02;14.30;;;13.00;;
15159;SDS011;7680;48.800;9.680;2023-11-18T02:27:10;14.83;;;13.47;;
15159;SDS011;7680;48.800;9.680;2023-11-18T02:32:15;15.47;;;13.93;;
15159;SDS011;7680;48.800;9.680;2023-11-18T02:37:25;15.70;;;14.23;;
15159;SDS011;7680;48.800;9.680;2023-11-18T02:42:30;15.50;;;14.10;;
15159;SDS011;7680;48.800;9.680;2023-11-18T02:47:34;15.00;;;13.60;;
15159;SDS011;7680;48.800;9.680;2023-11-18T02:52:37;15.40;;;13.97;;
15159;SDS011;7680;48.800;9.680;2023-11-18T02:57:42;14.70;;;13.17;;
15159;SDS011;7680;48.800;9.680;2023-11-18T03:02:45;15.93;;;14.37;;
15159;SDS011;7680;48.800;9.680;2023-11-18T03:07:49;14.80;;;13.47;;
15159;SDS011;7680;48.800;9.680;2023-11-18T03:12:56;15.27;;;13.67;;
15159;SDS011;7680;48.800;9.680;2023-11-18T03:17:59;14.03;;;12.67;;
15159;SDS011;7680;48.800;9.680;2023-11-18T03:23:02;13.73;;;12.43;;
15159;SDS011;7680;48.800;9.680;2023-11-18T03:28:10;15.30;;;13.77;;
15159;SDS011;7680;48.800;9.680;2023-11-18T03:33:13;15.50;;;13.67;;
15159;SDS011;7680;48.800;9.680;2023-11-18T03:38:16;14.80;;;13.40;;
15159;SDS011;7680;48.800;9.680;2023-11-18T03:43:21;15.53;;;14.03;;
15159;SDS011;7680;48.800;9.680;2023-11-18T03:48:24;18.27;;;16.33;;
15159;SDS011;7680;48.800;9.680;2023-11-18T03:53:27;16.00;;;14.37;;
15159;SDS011;7680;48.800;9.680;2023-11-18T03:58:32;17.23;;;15.47;;
15159;SDS011;7680;48.800;9.680;2023-11-18T04:03:35;16.60;;;15.00;;
15159;SDS011;7680;48.800;9.680;2023-11-18T04:08:39;15.90;;;14.30;;
15159;SDS011;7680;48.800;9.680;2023-11-18T04:13:46;13.73;;;12.43;;
15159;SDS011;7680;48.800;9.680;2023-11-18T04:18:49;14.73;;;13.23;;
15159;SDS011;7680;48.800;9.680;2023-11-18T04:23:53;15.07;;;13.47;;
15159;SDS011;7680;48.800;9.680;2023-11-18T04:28:57;15.80;;;13.40;;
15159;SDS011;7680;48.800;9.680;2023-11-18T04:34:01;14.40;;;12.37;;
15159;SDS011;7680;48.800;9.680;2023-11-18T04:39:05;14.47;;;13.03;;
15159;SDS011;7680;48.800;9.680;2023-11-18T04:44:10;14.23;;;12.93;;
15159;SDS011;7680;48.800;9.680;2023-11-18T04:49:13;13.07;;;11.70;;
15159;SDS011;7680;48.800;9.680;2023-11-18T04:54:17;13.00;;;11.80;;
15159;SDS011;7680;48.800;9.680;2023-11-18T04:59:22;11.83;;;10.70;;
15159;SDS011;7680;48.800;9.680;2023-11-18T05:04:26;12.20;;;11.10;;
15159;SDS011;7680;48.800;9.680;2023-11-18T05:09:29;13.37;;;12.07;;
15159;SDS011;7680;48.800;9.680;2023-11-18T05:14:34;13.27;;;12.07;;
15159;SDS011;7680;48.800;9.680;2023-11-18T05:19:39;14.10;;;12.63;;
15159;SDS011;7680;48.800;9.680;2023-11-18T05:24:43;14.23;;;12.83;;
15159;SDS011;7680;48.800;9.680;2023-11-18T05:29:48;13.80;;;12.50;;
15159;SDS011;7680;48.800;9.680;2023-11-18T05:34:55;14.33;;;12.93;;
15159;SDS011;7680;48.800;9.680;2023-11-18T05:39:59;14.07;;;12.67;;
15159;SDS011;7680;48.800;9.680;2023-11-18T05:45:09;14.37;;;12.97;;
15159;SDS011;7680;48.800;9.680;2023-11-18T05:50:19;14.47;;;12.97;;
15159;SDS011;7680;48.800;9.680;2023-11-18T05:55:22;14.57;;;13.07;;
15159;SDS011;7680;48.800;9.680;2023-11-18T06:00:26;14.13;;;12.73;;
15159;SDS011;7680;48.800;9.680;2023-11-18T06:05:41;13.47;;;12.07;;
15159;SDS011;7680;48.800;9.680;2023-11-18T06:10:44;16.30;;;14.70;;
15159;SDS011;7680;48.800;9.680;2023-11-18T06:15:49;22.03;;;18.63;;
15159;SDS011;7680;48.800;9.680;2023-11-18T06:20:52;35.17;;;26.43;;
15159;SDS011;7680;48.800;9.680;2023-11-18T06:25:55;23.73;;;20.77;;
15159;SDS011;7680;48.800;9.680;2023-11-18T06:31:03;18.70;;;16.47;;
15159;SDS011;7680;48.800;9.680;2023-11-18T06:36:10;16.67;;;15.03;;
15159;SDS011;7680;48.800;9.680;2023-11-18T06:41:20;17.20;;;15.50;;
15159;SDS011;7680;48.800;9.680;2023-11-18T06:46:29;16.93;;;15.10;;
15159;SDS011;7680;48.800;9.680;2023-11-18T06:51:35;15.20;;;13.60;;
15159;SDS011;7680;48.800;9.680;2023-11-18T06:56:40;17.50;;;13.30;;
15159;SDS011;7680;48.800;9.680;2023-11-18T07:01:47;14.17;;;12.67;;
15159;SDS011;7680;48.800;9.680;2023-11-18T07:06:50;15.43;;;13.80;;
15159;SDS011;7680;48.800;9.680;2023-11-18T07:11:53;15.23;;;13.63;;
15159;SDS011;7680;48.800;9.680;2023-11-18T07:16:58;15.43;;;13.93;;
15159;SDS011;7680;48.800;9.680;2023-11-18T07:22:02;16.10;;;14.43;;
15159;SDS011;7680;48.800;9.680;2023-11-18T07:27:07;13.53;;;12.13;;
15159;SDS011;7680;48.800;9.680;2023-11-18T07:32:14;14.47;;;13.07;;
15159;SDS011;7680;48.800;9.680;2023-11-18T07:37:17;15.33;;;13.43;;
15159;SDS011;7680;48.800;9.680;2023-11-18T07:42:20;14.27;;;12.97;;
15159;SDS011;7680;48.800;9.680;2023-11-18T07:47:24;13.17;;;11.87;;
15159;SDS011;7680;48.800;9.680;2023-11-18T07:52:29;13.00;;;11.80;;
15159;SDS011;7680;48.800;9.680;2023-11-18T07:57:32;12.63;;;11.50;;
15159;SDS011;7680;48.800;9.680;2023-11-18T08:02:38;14.37;;;13.17;;
15159;SDS011;7680;48.800;9.680;2023-11-18T08:07:42;14.80;;;13.50;;
15159;SDS011;7680;48.800;9.680;2023-11-18T08:12:46;12.50;;;11.37;;
15159;SDS011;7680;48.800;9.680;2023-11-18T08:17:51;12.70;;;11.57;;
15159;SDS011;7680;48.800;9.680;2023-11-18T08:22:54;13.30;;;12.10;;
15159;SDS011;7680;48.800;9.680;2023-11-18T08:27:58;10.33;;;9.43;;
15159;SDS011;7680;48.800;9.680;2023-11-18T08:33:03;11.43;;;10.43;;
15159;SDS011;7680;48.800;9.680;2023-11-18T08:38:10;11.80;;;10.77;;
15159;SDS011;7680;48.800;9.680;2023-11-18T08:43:13;11.83;;;10.80;;
15159;SDS011;7680;48.800;9.680;2023-11-18T08:48:19;11.37;;;10.03;;
15159;SDS011;7680;48.800;9.680;2023-11-18T08:53:24;10.57;;;9.67;;
15159;SDS011;7680;48.800;9.680;2023-11-18T08:58:27;9.23;;;8.43;;
15159;SDS011;7680;48.800;9.680;2023-11-18T09:03:36;8.30;;;7.60;;
15159;SDS011;7680;48.800;9.680;2023-11-18T09:08:45;7.77;;;7.17;;
15159;SDS011;7680;48.800;9.680;2023-11-18T09:13:55;8.67;;;7.80;;
15159;SDS011;7680;48.800;9.680;2023-11-18T09:19:03;8.00;;;7.40;;
15159;SDS011;7680;48.800;9.680;2023-11-18T09:24:07;8.13;;;7.53;;
15159;SDS011;7680;48.800;9.680;2023-11-18T09:29:13;8.73;;;7.90;;
15159;SDS011;7680;48.800;9.680;2023-11-18T09:34:20;8.20;;;7.50;;
15159;SDS011;7680;48.800;9.680;2023-11-18T09:39:28;8.13;;;7.47;;
15159;SDS011;7680;48.800;9.680;2023-11-18T09:44:39;9.13;;;8.40;;
15159;SDS011;7680;48.800;9.680;2023-11-18T09:49:44;8.00;;;7.28;;
15159;SDS011;7680;48.800;9.680;2023-11-18T09:54:54;8.90;;;8.20;;
15159;SDS011;7680;48.800;9.680;2023-11-18T10:00:05;7.47;;;6.93;;
15159;SDS011;7680;48.800;9.680;2023-11-18T10:05:23;8.18;;;7.47;;
15159;SDS011;7680;48.800;9.680;2023-11-18T10:10:29;7.07;;;6.47;;
15159;SDS011;7680;48.800;9.680;2023-11-18T10:15:38;7.65;;;6.95;;
15159;SDS011;7680;48.800;9.680;2023-11-18T10:20:46;7.30;;;6.75;;
15159;SDS011;7680;48.800;9.680;2023-11-18T10:25:52;6.22;;;5.78;;
15159;SDS011;7680;48.800;9.680;2023-11-18T10:30:59;6.72;;;6.20;;
15159;SDS011;7680;48.800;9.680;2023-11-18T10:36:17;6.15;;;5.75;;
15159;SDS011;7680;48.800;9.680;2023-11-18T10:41:23;4.22;;;3.92;;
15159;SDS011;7680;48.800;9.680;2023-11-18T10:46:27;4.60;;;4.07;;
15159;SDS011;7680;48.800;9.680;2023-11-18T10:51:32;4.25;;;3.95;;
15159;SDS011;7680;48.800;9.680;2023-11-18T10:56:37;4.25;;;3.88;;
15159;SDS011;7680;48.800;9.680;2023-11-18T11:01:40;3.75;;;3.45;;
15159;SDS011;7680;48.800;9.680;2023-11-18T11:06:46;3.42;;;3.17;;
15159;SDS011;7680;48.800;9.680;2023-11-18T11:11:55;3.67;;;3.17;;
15159;SDS011;7680;48.800;9.680;2023-11-18T11:17:06;3.50;;;3.20;;
15159;SDS011;7680;48.800;9.680;2023-11-18T11:22:15;2.90;;;2.70;;
15159;SDS011;7680;48.800;9.680;2023-11-18T11:27:28;4.55;;;2.50;;
15159;SDS011;7680;48.800;9.680;2023-11-18T11:32:45;3.80;;;3.03;;
15159;SDS011;7680;48.800;9.680;2023-11-18T11:37:56;2.92;;;2.72;;
15159;SDS011;7680;48.800;9.680;2023-11-18T11:43:06;2.58;;;2.38;;
15159;SDS011;7680;48.800;9.680;2023-11-18T11:48:12;2.92;;;2.72;;
15159;SDS011;7680;48.800;9.680;2023-11-18T11:53:19;3.55;;;2.97;;
15159;SDS011;7680;48.800;9.680;2023-11-18T11:58:25;3.00;;;2.80;;
15159;SDS011;7680;48.800;9.680;2023-11-18T12:03:29;3.83;;;3.47;;
15159;SDS011;7680;48.800;9.680;2023-11-18T12:08:40;3.33;;;2.83;;
15159;SDS011;7680;48.800;9.680;2023-11-18T12:13:59;3.22;;;2.92;;
15159;SDS011;7680;48.800;9.680;2023-11-18T12:19:30;4.63;;;2.60;;
15159;SDS011;7680;48.800;9.680;2023-11-18T12:24:39;3.53;;;3.00;;
15159;SDS011;7680;48.800;9.680;2023-11-18T12:29:43;3.60;;;2.72;;
15159;SDS011;7680;48.800;9.680;2023-11-18T12:34:49;3.15;;;2.60;;
15159;SDS011;7680;48.800;9.680;2023-11-18T12:51:51;3.55;;;3.25;;
15159;SDS011;7680;48.800;9.680;2023-11-18T12:56:57;3.88;;;3.58;;
15159;SDS011;7680;48.800;9.680;2023-11-18T13:02:07;3.88;;;3.33;;
15159;SDS011;7680;48.800;9.680;2023-11-18T13:07:14;4.13;;;3.72;;
15159;SDS011;7680;48.800;9.680;2023-11-18T13:12:19;5.40;;;4.97;;
15159;SDS011;7680;48.800;9.680;2023-11-18T13:17:26;3.58;;;3.28;;
15159;SDS011;7680;48.800;9.680;2023-11-18T13:22:29;3.78;;;3.10;;
15159;SDS011;7680;48.800;9.680;2023-11-18T13:27:46;3.53;;;3.22;;
15159;SDS011;7680;48.800;9.680;2023-11-18T13:32:51;3.80;;;3.13;;
15159;SDS011;7680;48.800;9.680;2023-11-18T13:37:54;3.85;;;3.55;;
15159;SDS011;7680;48.800;9.680;2023-11-18T13:43:02;4.47;;;4.05;;
15159;SDS011;7680;48.800;9.680;2023-11-18T13:48:08;4.70;;;4.10;;
15159;SDS011;7680;48.800;9.680;2023-11-18T13:53:11;5.60;;;4.65;;
15159;SDS011;7680;48.800;9.680;2023-11-18T13:58:17;6.00;;;4.85;;
15159;SDS011;7680;48.800;9.680;2023-11-18T14:03:22;4.68;;;4.28;;
15159;SDS011;7680;48.800;9.680;2023-11-18T14:08:26;4.38;;;4.05;;
15159;SDS011;7680;48.800;9.680;2023-11-18T14:13:29;4.60;;;4.20;;
15159;SDS011;7680;48.800;9.680;2023-11-18T14:18:34;4.18;;;3.80;;
15159;SDS011;7680;48.800;9.680;2023-11-18T14:23:38;3.50;;;3.10;;
15159;SDS011;7680;48.800;9.680;2023-11-18T14:28:41;3.63;;;3.10;;
15159;SDS011;7680;48.800;9.680;2023-11-18T14:33:46;3.65;;;3.40;;
15159;SDS011;7680;48.800;9.680;2023-11-18T14:38:49;3.85;;;3.55;;
15159;SDS011;7680;48.800;9.680;2023-11-18T14:43:52;3.83;;;3.63;;
15159;SDS011;7680;48.800;9.680;2023-11-18T14:48:57;5.32;;;4.82;;
15159;SDS011;7680;48.800;9.680;2023-11-18T14:54:00;7.18;;;6.50;;
15159;SDS011;7680;48.800;9.680;2023-11-18T14:59:04;5.78;;;5.20;;
15159;SDS011;7680;48.800;9.680;2023-11-18T15:04:10;31.30;;;16.48;;
15159;SDS011;7680;48.800;9.680;2023-11-18T15:09:13;5.40;;;4.90;;
15159;SDS011;7680;48.800;9.680;2023-11-18T15:14:16;4.95;;;4.45;;
15159;SDS011;7680;48.800;9.680;2023-11-18T15:19:21;4.90;;;4.45;;
15159;SDS011;7680;48.800;9.680;2023-11-18T15:24:24;4.65;;;4.25;;
15159;SDS011;7680;48.800;9.680;2023-11-18T15:29:27;4.20;;;3.80;;
15159;SDS011;7680;48.800;9.680;2023-11-18T15:34:40;4.40;;;4.00;;
15159;SDS011;7680;48.800;9.680;2023-11-18T15:39:43;5.23;;;4.73;;
15159;SDS011;7680;48.800;9.680;2023-11-18T15:44:46;5.63;;;4.47;;
15159;SDS011;7680;48.800;9.680;2023-11-18T15:49:51;4.72;;;4.00;;
15159;SDS011;7680;48.800;9.680;2023-11-18T15:54:54;5.10;;;4.55;;
15159;SDS011;7680;48.800;9.680;2023-11-18T15:59:57;5.30;;;4.80;;
15159;SDS011;7680;48.800;9.680;2023-11-18T16:05:02;3.97;;;3.67;;
15159;SDS011;7680;48.800;9.680;2023-11-18T16:10:07;7.07;;;6.45;;
15159;SDS011;7680;48.800;9.680;2023-11-18T16:15:11;6.53;;;5.25;;
15159;SDS011;7680;48.800;9.680;2023-11-18T16:20:16;4.80;;;4.40;;
15159;SDS011;7680;48.800;9.680;2023-11-18T16:25:22;4.80;;;4.30;;
15159;SDS011;7680;48.800;9.680;2023-11-18T16:30:29;5.30;;;4.80;;
15159;SDS011;7680;48.800;9.680;2023-11-18T16:35:35;12.05;;;8.95;;
15159;SDS011;7680;48.800;9.680;2023-11-18T16:40:38;9.95;;;7.28;;
15159;SDS011;7680;48.800;9.680;2023-11-18T16:45:41;16.98;;;14.13;;
15159;SDS011;7680;48.800;9.680;2023-11-18T16:50:46;8.60;;;7.13;;
15159;SDS011;7680;48.800;9.680;2023-11-18T16:55:49;7.80;;;6.95;;
15159;SDS011;7680;48.800;9.680;2023-11-18T17:00:52;6.95;;;6.43;;
15159;SDS011;7680;48.800;9.680;2023-11-18T17:05:57;6.18;;;5.25;;
15159;SDS011;7680;48.800;9.680;2023-11-18T17:11:01;6.72;;;6.22;;
15159;SDS011;7680;48.800;9.680;2023-11-18T17:16:06;6.53;;;5.93;;
15159;SDS011;7680;48.800;9.680;2023-11-18T17:21:11;6.50;;;5.87;;
15159;SDS011;7680;48.800;9.680;2023-11-18T17:26:14;9.10;;;6.33;;
15159;SDS011;7680;48.800;9.680;2023-11-18T17:31:17;6.80;;;6.10;;
15159;SDS011;7680;48.800;9.680;2023-11-18T17:36:22;6.60;;;5.90;;
15159;SDS011;7680;48.800;9.680;2023-11-18T17:41:26;5.07;;;4.67;;
15159;SDS011;7680;48.800;9.680;2023-11-18T17:46:29;4.60;;;4.20;;
15159;SDS011;7680;48.800;9.680;2023-11-18T17:51:35;4.70;;;4.30;;
15159;SDS011;7680;48.800;9.680;2023-11-18T17:56:38;4.80;;;4.40;;
15159;SDS011;7680;48.800;9.680;2023-11-18T18:01:41;4.07;;;3.77;;
15159;SDS011;7680;48.800;9.680;2023-11-18T18:06:46;5.87;;;5.37;;
15159;SDS011;7680;48.800;9.680;2023-11-18T18:11:49;8.25;;;6.13;;
15159;SDS011;7680;48.800;9.680;2023-11-18T18:16:53;8.90;;;6.60;;
15159;SDS011;7680;48.800;9.680;2023-11-18T18:21:58;5.20;;;4.60;;
15159;SDS011;7680;48.800;9.680;2023-11-18T18:27:01;4.30;;;3.90;;
15159;SDS011;7680;48.800;9.680;2023-11-18T18:32:06;10.00;;;9.10;;
15159;SDS011;7680;48.800;9.680;2023-11-18T18:37:13;7.70;;;7.00;;
15159;SDS011;7680;48.800;9.680;2023-11-18T18:42:16;7.23;;;6.50;;
15159;SDS011;7680;48.800;9.680;2023-11-18T18:47:20;7.43;;;6.83;;
15159;SDS011;7680;48.800;9.680;2023-11-18T18:52:29;7.77;;;7.17;;
15159;SDS011;7680;48.800;9.680;2023-11-18T18:57:32;11.33;;;10.33;;
15159;SDS011;7680;48.800;9.680;2023-11-18T19:02:35;15.27;;;13.87;;
15159;SDS011;7680;48.800;9.680;2023-11-18T19:07:40;9.63;;;8.73;;
15159;SDS011;7680;48.800;9.680;2023-11-18T19:12:43;7.00;;;6.40;;
15159;SDS011;7680;48.800;9.680;2023-11-18T19:17:46;6.70;;;6.20;;
15159;SDS011;7680;48.800;9.680;2023-11-18T19:22:52;8.47;;;7.67;;
15159;SDS011;7680;48.800;9.680;2023-11-18T19:27:56;9.57;;;8.33;;
15159;SDS011;7680;48.800;9.680;2023-11-18T19:33:00;8.30;;;7.60;;
15159;SDS011;7680;48.800;9.680;2023-11-18T19:38:04;6.70;;;6.10;;
15159;SDS011;7680;48.800;9.680;2023-11-18T19:43:08;4.70;;;4.30;;
15159;SDS011;7680;48.800;9.680;2023-11-18T19:48:11;4.20;;;3.50;;
15159;SDS011;7680;48.800;9.680;2023-11-18T19:53:16;6.20;;;5.57;;
15159;SDS011;7680;48.800;9.680;2023-11-18T19:58:19;5.90;;;5.00;;
15159;SDS011;7680;48.800;9.680;2023-11-18T20:03:23;4.67;;;4.27;;
15159;SDS011;7680;48.800;9.680;2023-11-18T20:08:28;4.67;;;4.30;;
15159;SDS011;7680;48.800;9.680;2023-11-18T20:13:31;7.20;;;6.07;;
15159;SDS011;7680;48.800;9.680;2023-11-18T20:18:35;9.83;;;7.53;;
15159;SDS011;7680;48.800;9.680;2023-11-18T20:23:40;6.70;;;6.13;;
15159;SDS011;7680;48.800;9.680;2023-11-18T20:28:43;8.23;;;7.43;;
15159;SDS011;7680;48.800;9.680;2023-11-18T20:33:46;7.23;;;6.53;;
15159;SDS011;7680;48.800;9.680;2023-11-18T20:38:52;7.43;;;6.77;;
15159;SDS011;7680;48.800;9.680;2023-11-18T20:43:55;10.17;;;9.13;;
15159;SDS011;7680;48.800;9.680;2023-11-18T20:48:58;9.17;;;8.37;;
15159;SDS011;7680;48.800;9.680;2023-11-18T20:54:03;8.43;;;7.63;;
15159;SDS011;7680;48.800;9.680;2023-11-18T20:59:08;11.13;;;9.03;;
15159;SDS011;7680;48.800;9.680;2023-11-18T21:04:11;10.30;;;8.77;;
15159;SDS011;7680;48.800;9.680;2023-11-18T21:09:17;9.00;;;7.60;;
15159;SDS011;7680;48.800;9.680;2023-11-18T21:14:20;9.40;;;8.60;;
15159;SDS011;7680;48.800;9.680;2023-11-18T21:19:23;10.10;;;9.30;;
15159;SDS011;7680;48.800;9.680;2023-11-18T21:24:29;9.23;;;8.43;;
15159;SDS011;7680;48.800;9.680;2023-11-18T21:29:32;8.43;;;7.63;;
15159;SDS011;7680;48.800;9.680;2023-11-18T21:34:35;8.03;;;7.33;;
15159;SDS011;7680;48.800;9.680;2023-11-18T21:39:40;8.93;;;6.80;;
15159;SDS011;7680;48.800;9.680;2023-11-18T21:44:43;5.97;;;5.57;;
15159;SDS011;7680;48.800;9.680;2023-11-18T21:49:48;8.50;;;7.70;;
15159;SDS011;7680;48.800;9.680;2023-11-18T21:54:54;13.80;;;12.40;;
15159;SDS011;7680;48.800;9.680;2023-11-18T21:59:57;12.93;;;11.63;;
15159;SDS011;7680;48.800;9.680;2023-11-18T22:05:00;9.47;;;8.57;;
15159;SDS011;7680;48.800;9.680;2023-11-18T22:10:06;9.40;;;8.60;;
15159;SDS011;7680;48.800;9.680;2023-11-18T22:15:12;10.43;;;9.53;;
15159;SDS011;7680;48.800;9.680;2023-11-18T22:20:18;28.30;;;19.90;;
15159;SDS011;7680;48.800;9.680;2023-11-18T22:25:27;15.73;;;14.03;;
15159;SDS011;7680;48.800;9.680;2023-11-18T22:30:32;10.67;;;9.57;;
15159;SDS011;7680;48.800;9.680;2023-11-18T22:35:35;10.80;;;9.90;;
15159;SDS011;7680;48.800;9.680;2023-11-18T22:40:41;9.73;;;8.93;;
15159;SDS011;7680;48.800;9.680;2023-11-18T22:45:44;10.23;;;9.23;;
15159;SDS011;7680;48.800;9.680;2023-11-18T22:50:50;9.73;;;8.77;;
15159;SDS011;7680;48.800;9.680;2023-11-18T22:55:54;12.93;;;11.57;;
15159;SDS011;7680;48.800;9.680;2023-11-18T23:00:58;12.20;;;10.47;;
15159;SDS011;7680;48.800;9.680;2023-11-18T23:06:01;8.80;;;8.00;;
15159;SDS011;7680;48.800;9.680;2023-11-18T23:11:10;12.87;;;11.37;;
15159;SDS011;7680;48.800;9.680;2023-11-18T23:16:14;9.93;;;8.97;;
15159;SDS011;7680;48.800;9.680;2023-11-18T23:21:17;10.43;;;9.33;;
15159;SDS011;7680;48.800;9.680;2023-11-18T23:26:22;10.30;;;8.90;;
15159;SDS011;7680;48.800;9.680;2023-11-18T23:31:26;8.07;;;7.30;;
15159;SDS011;7680;48.800;9.680;2023-11-18T23:36:29;9.67;;;8.87;;
15159;SDS011;7680;48.800;9.680;2023-11-18T23:41:34;10.93;;;9.83;;
15159;SDS011;7680;48.800;9.680;2023-11-18T23:46:37;10.07;;;9.07;;
15159;SDS011;7680;48.800;9.680;2023-11-18T23:51:40;11.57;;;10.47;;
15159;SDS011;7680;48.800;9.680;2023-11-18T23:56:44;11.53;;;10.43;;
